Time;durP1;ratioP1;P1;durP2;ratioP2;P2;SDS_P1;SDS_P2;PMS_P1;PMS_P2;Temp;Humidity;BMP_temperature;BMP_pressure;BME280_temperature;BME280_humidity;BME280_pressure;Samples;Min_cycle;Max_cycle;Signal;HPM_P1;HPM_P2
2022/04/28 00:00:00;;;;;;;32.53;15.30;;;;;;;;;;4996343;28;20531;-81
2022/04/28 00:02:26;;;;;;;33.33;15.70;;;;;;;;;;4995094;28;20045;-81
2022/04/28 00:04:52;;;;;;;28.90;15.43;;;;;;;;;;5000978;28;20026;-81
2022/04/28 00:07:18;;;;;;;34.22;15.00;;;;;;;;;;4998743;28;20036;-81
2022/04/28 00:09:44;;;;;;;36.35;16.55;;;;;;;;;;4996117;28;20034;-80
2022/04/28 00:12:11;;;;;;;32.13;16.92;;;;;;;;;;4997942;28;20038;-81
2022/04/28 00:14:37;;;;;;;29.67;16.13;;;;;;;;;;4994618;28;20037;-80
2022/04/28 00:17:04;;;;;;;28.63;15.93;;;;;;;;;;5003751;28;20030;-79
2022/04/28 00:19:30;;;;;;;32.75;16.63;;;;;;;;;;5000051;28;20570;-81
2022/04/28 00:21:56;;;;;;;38.28;17.30;;;;;;;;;;4999682;28;20062;-80
2022/04/28 00:24:22;;;;;;;32.38;17.73;;;;;;;;;;5003180;28;20040;-80
2022/04/28 00:26:48;;;;;;;32.42;17.33;;;;;;;;;;5000106;28;20034;-80
2022/04/28 00:29:14;;;;;;;36.65;16.75;;;;;;;;;;5000147;28;20034;-80
2022/04/28 00:31:40;;;;;;;29.42;16.88;;;;;;;;;;4998587;28;20043;-80
2022/04/28 00:34:06;;;;;;;29.95;16.90;;;;;;;;;;5001845;28;20025;-81
2022/04/28 00:36:32;;;;;;;31.00;15.40;;;;;;;;;;5006830;28;20042;-82
2022/04/28 00:38:58;;;;;;;37.88;15.88;;;;;;;;;;4996896;28;20438;-81
2022/04/28 00:41:24;;;;;;;35.00;16.92;;;;;;;;;;4999243;28;20034;-80
2022/04/28 00:43:51;;;;;;;34.17;16.63;;;;;;;;;;5008075;28;20064;-81
2022/04/28 00:46:18;;;;;;;39.55;16.77;;;;;;;;;;5000545;28;20083;-81
2022/04/28 00:51:33;;;;;;;33.13;16.20;;;;;;;;;;5004095;28;20144;-82
2022/04/28 00:54:00;;;;;;;39.50;17.10;;;;;;;;;;4999939;28;20391;-82
2022/04/28 00:56:26;;;;;;;37.42;17.92;;;;;;;;;;5005856;28;20140;-80
2022/04/28 00:58:53;;;;;;;28.60;17.30;;;;;;;;;;4999569;28;20140;-81
2022/04/28 01:01:19;;;;;;;36.83;16.85;;;;;;;;;;4998261;28;20088;-81
2022/04/28 01:03:48;;;;;;;30.50;16.65;;;;;;;;;;4998531;28;20474;-81
2022/04/28 01:06:15;;;;;;;33.63;15.85;;;;;;;;;;5011021;28;20100;-82
2022/04/28 01:08:42;;;;;;;30.08;15.98;;;;;;;;;;5003211;28;20080;-81
2022/04/28 01:11:08;;;;;;;30.48;15.48;;;;;;;;;;5009101;28;20050;-81
2022/04/28 01:13:35;;;;;;;32.53;15.45;;;;;;;;;;5012912;28;20120;-82
2022/04/28 01:16:01;;;;;;;32.85;15.40;;;;;;;;;;5000077;28;20030;-81
2022/04/28 01:18:27;;;;;;;25.00;14.57;;;;;;;;;;4996351;28;20038;-82
2022/04/28 01:20:53;;;;;;;32.60;15.63;;;;;;;;;;4998889;28;20097;-81
2022/04/28 01:23:19;;;;;;;31.13;14.55;;;;;;;;;;5000770;28;20030;-81
2022/04/28 01:25:45;;;;;;;28.00;15.48;;;;;;;;;;5000172;28;20038;-80
2022/04/28 01:28:11;;;;;;;37.95;17.35;;;;;;;;;;5001272;28;20518;-80
2022/04/28 01:30:38;;;;;;;42.03;16.60;;;;;;;;;;4998649;28;20497;-80
2022/04/28 01:33:05;;;;;;;36.45;15.98;;;;;;;;;;4994290;28;20080;-80
2022/04/28 01:35:31;;;;;;;39.22;16.73;;;;;;;;;;5001527;28;20675;-80
2022/04/28 01:37:57;;;;;;;27.13;15.57;;;;;;;;;;4993236;28;20550;-80
2022/04/28 01:40:24;;;;;;;29.73;15.57;;;;;;;;;;5000878;28;20116;-80
2022/04/28 01:42:50;;;;;;;32.35;18.13;;;;;;;;;;4997872;28;20068;-81
2022/04/28 01:45:16;;;;;;;45.25;18.23;;;;;;;;;;4996984;28;20467;-81
2022/04/28 01:47:43;;;;;;;37.63;17.83;;;;;;;;;;4997544;28;20031;-81
2022/04/28 01:50:12;;;;;;;42.17;18.10;;;;;;;;;;5002306;28;20049;-81
2022/04/28 01:55:23;;;;;;;42.33;19.23;;;;;;;;;;5001163;28;20124;-81
2022/04/28 01:57:49;;;;;;;49.30;19.73;;;;;;;;;;5000641;28;20113;-81
2022/04/28 02:00:16;;;;;;;52.78;20.35;;;;;;;;;;4999274;28;20042;-80
2022/04/28 02:02:43;;;;;;;50.47;19.92;;;;;;;;;;5000033;28;20468;-81
2022/04/28 02:05:09;;;;;;;48.60;20.38;;;;;;;;;;5003686;28;20125;-81
2022/04/28 02:07:35;;;;;;;54.25;19.92;;;;;;;;;;4995682;28;20129;-81
2022/04/28 02:10:03;;;;;;;45.60;21.15;;;;;;;;;;5003690;28;20496;-81
2022/04/28 02:12:29;;;;;;;51.83;20.92;;;;;;;;;;5004263;28;20046;-80
2022/04/28 02:14:55;;;;;;;47.90;21.23;;;;;;;;;;5003785;28;20109;-81
2022/04/28 02:17:22;;;;;;;52.72;20.63;;;;;;;;;;5004024;28;20375;-81
2022/04/28 02:19:49;;;;;;;52.95;22.15;;;;;;;;;;5005354;28;20030;-80
2022/04/28 02:22:15;;;;;;;52.72;21.60;;;;;;;;;;5005681;28;20089;-81
2022/04/28 02:24:41;;;;;;;50.92;20.27;;;;;;;;;;5007879;28;20060;-80
2022/04/28 02:27:07;;;;;;;45.40;20.35;;;;;;;;;;5004612;28;20057;-81
2022/04/28 02:29:33;;;;;;;46.92;20.02;;;;;;;;;;5005749;28;20109;-81
2022/04/28 02:31:59;;;;;;;55.80;22.00;;;;;;;;;;5009500;28;20415;-81
2022/04/28 02:34:26;;;;;;;56.75;21.38;;;;;;;;;;5002089;28;20030;-82
2022/04/28 02:36:52;;;;;;;53.70;22.15;;;;;;;;;;5009905;28;20049;-81
2022/04/28 02:39:18;;;;;;;53.72;22.20;;;;;;;;;;5006569;28;20613;-80
2022/04/28 02:41:47;;;;;;;51.65;22.02;;;;;;;;;;5005043;28;20037;-82
2022/04/28 02:44:14;;;;;;;52.55;21.70;;;;;;;;;;5005913;28;20030;-80
2022/04/28 02:46:42;;;;;;;55.65;22.17;;;;;;;;;;5005879;28;20124;-81
2022/04/28 02:49:09;;;;;;;59.97;23.80;;;;;;;;;;5010820;28;20543;-82
2022/04/28 02:51:35;;;;;;;52.83;22.55;;;;;;;;;;5007084;28;20125;-80
2022/04/28 02:54:01;;;;;;;55.08;22.17;;;;;;;;;;5005427;28;20033;-81
2022/04/28 02:56:27;;;;;;;63.50;22.60;;;;;;;;;;5003981;28;20092;-83
2022/04/28 02:58:53;;;;;;;59.45;23.50;;;;;;;;;;5007928;28;20026;-81
2022/04/28 03:01:20;;;;;;;65.82;25.00;;;;;;;;;;5007736;28;20038;-81
2022/04/28 03:03:46;;;;;;;61.88;24.08;;;;;;;;;;5001938;28;20010;-81
2022/04/28 03:11:41;;;;;;;62.13;23.52;;;;;;;;;;5006185;28;20049;-81
2022/04/28 03:14:08;;;;;;;67.80;24.17;;;;;;;;;;5000314;28;20600;-82
2022/04/28 03:16:35;;;;;;;53.30;22.92;;;;;;;;;;5007646;28;20399;-81
2022/04/28 03:19:01;;;;;;;63.40;23.25;;;;;;;;;;5003503;28;20076;-81
2022/04/28 03:21:27;;;;;;;60.97;23.20;;;;;;;;;;5005476;28;20030;-81
2022/04/28 03:23:53;;;;;;;71.22;23.63;;;;;;;;;;5005686;28;20121;-80
2022/04/28 03:26:19;;;;;;;56.17;22.85;;;;;;;;;;5002356;28;20556;-82
2022/04/28 03:28:45;;;;;;;63.55;23.10;;;;;;;;;;4999741;28;20459;-81
2022/04/28 03:31:11;;;;;;;53.85;22.08;;;;;;;;;;5001230;28;20042;-81
2022/04/28 03:33:37;;;;;;;62.83;24.85;;;;;;;;;;4998419;28;20022;-80
2022/04/28 03:36:50;;;;;;;60.50;25.35;;;;;;;;;;5004116;28;20037;-81
2022/04/28 03:38:53;;;;;;;65.07;23.73;;;;;;;;;;5000624;28;20029;-80
2022/04/28 03:41:19;;;;;;;59.72;23.85;;;;;;;;;;4997941;28;20030;-80
2022/04/28 03:43:45;;;;;;;61.53;22.58;;;;;;;;;;4998123;28;20647;-81
2022/04/28 03:46:18;;;;;;;57.80;22.23;;;;;;;;;;5003216;28;20034;-80
2022/04/28 03:48:44;;;;;;;56.03;23.42;;;;;;;;;;5000746;28;20060;-81
2022/04/28 03:51:10;;;;;;;62.33;24.17;;;;;;;;;;4994922;28;20072;-81
2022/04/28 03:53:36;;;;;;;65.38;24.05;;;;;;;;;;4998763;28;20488;-81
2022/04/28 03:56:02;;;;;;;60.90;24.08;;;;;;;;;;5002843;28;20064;-81
2022/04/28 03:58:28;;;;;;;56.75;23.42;;;;;;;;;;5000043;28;20519;-82
2022/04/28 04:00:54;;;;;;;67.40;22.50;;;;;;;;;;4998375;28;20488;-80
2022/04/28 04:03:20;;;;;;;74.75;25.50;;;;;;;;;;4998345;28;20036;-81
2022/04/28 04:05:47;;;;;;;70.43;24.13;;;;;;;;;;5003359;28;20030;-80
2022/04/28 04:08:13;;;;;;;59.83;23.13;;;;;;;;;;5001765;28;20081;-81
2022/04/28 04:10:39;;;;;;;61.65;23.65;;;;;;;;;;5005577;28;20052;-81
2022/04/28 04:13:06;;;;;;;58.53;23.42;;;;;;;;;;5003708;28;20045;-81
2022/04/28 04:15:32;;;;;;;67.03;25.38;;;;;;;;;;5007539;28;20053;-80
2022/04/28 04:17:58;;;;;;;73.15;25.55;;;;;;;;;;5005509;28;20038;-81
2022/04/28 04:20:25;;;;;;;65.65;24.30;;;;;;;;;;5003051;28;20042;-81
2022/04/28 04:22:52;;;;;;;60.65;24.00;;;;;;;;;;5006810;28;20119;-80
2022/04/28 04:25:19;;;;;;;67.35;25.80;;;;;;;;;;5005409;28;20025;-82
2022/04/28 04:27:45;;;;;;;61.13;23.98;;;;;;;;;;5007214;28;20021;-80
2022/04/28 04:32:56;;;;;;;87.55;25.52;;;;;;;;;;5001429;28;20057;-81
2022/04/28 04:35:23;;;;;;;73.00;25.63;;;;;;;;;;5000632;28;20026;-82
2022/04/28 04:37:50;;;;;;;65.70;26.02;;;;;;;;;;5006368;28;20022;-81
2022/04/28 04:40:16;;;;;;;65.53;24.05;;;;;;;;;;5007906;28;20086;-81
2022/04/28 04:42:42;;;;;;;73.00;25.13;;;;;;;;;;5002307;28;20733;-81
2022/04/28 04:45:08;;;;;;;77.57;26.15;;;;;;;;;;5003811;28;20018;-81
2022/04/28 04:47:34;;;;;;;89.22;28.17;;;;;;;;;;5005914;28;20060;-81
2022/04/28 04:50:00;;;;;;;73.57;24.58;;;;;;;;;;5007206;28;20066;-81
2022/04/28 04:52:26;;;;;;;53.45;23.77;;;;;;;;;;5007062;28;20814;-81
2022/04/28 04:54:52;;;;;;;53.13;23.98;;;;;;;;;;5009484;28;20116;-80
2022/04/28 04:57:18;;;;;;;52.25;22.70;;;;;;;;;;5002578;28;20499;-81
2022/04/28 04:59:44;;;;;;;47.17;20.63;;;;;;;;;;5005199;28;20030;-81
2022/04/28 05:02:10;;;;;;;43.85;19.42;;;;;;;;;;5002433;28;20053;-80
2022/04/28 05:04:36;;;;;;;44.60;19.70;;;;;;;;;;5000131;28;20025;-82
2022/04/28 05:07:02;;;;;;;49.97;20.33;;;;;;;;;;5002415;28;20110;-81
2022/04/28 05:09:28;;;;;;;31.80;17.67;;;;;;;;;;5003743;28;20109;-81
2022/04/28 05:11:54;;;;;;;34.70;16.67;;;;;;;;;;5001918;28;20042;-80
2022/04/28 05:14:20;;;;;;;37.80;15.65;;;;;;;;;;4999022;28;20039;-81
2022/04/28 05:16:46;;;;;;;29.48;15.57;;;;;;;;;;5004472;28;20026;-80
2022/04/28 05:19:12;;;;;;;28.23;14.55;;;;;;;;;;4999270;28;20040;-81
2022/04/28 05:21:38;;;;;;;27.05;12.65;;;;;;;;;;5002685;28;20025;-81
2022/04/28 05:24:04;;;;;;;23.15;12.70;;;;;;;;;;5004955;28;20038;-81
2022/04/28 05:26:30;;;;;;;23.00;12.35;;;;;;;;;;5002071;28;20049;-80
2022/04/28 05:28:56;;;;;;;32.20;11.65;;;;;;;;;;5006184;28;20022;-81
2022/04/28 05:31:22;;;;;;;20.10;10.85;;;;;;;;;;5007161;28;20057;-81
2022/04/28 05:33:48;;;;;;;23.38;11.77;;;;;;;;;;5001228;28;20120;-81
2022/04/28 05:36:16;;;;;;;26.48;11.25;;;;;;;;;;5002762;28;20156;-82
2022/04/28 05:38:42;;;;;;;23.50;11.32;;;;;;;;;;5004470;28;20167;-81
2022/04/28 05:41:08;;;;;;;24.15;11.68;;;;;;;;;;5007388;28;20044;-82
2022/04/28 05:46:24;;;;;;;25.58;11.25;;;;;;;;;;5002215;28;20048;-81
2022/04/28 05:48:51;;;;;;;24.83;10.77;;;;;;;;;;4998475;28;20129;-81
2022/04/28 05:51:18;;;;;;;19.25;10.25;;;;;;;;;;5008108;28;20037;-81
2022/04/28 05:53:44;;;;;;;18.20;9.23;;;;;;;;;;5007881;28;20029;-81
2022/04/28 05:56:10;;;;;;;20.27;9.88;;;;;;;;;;5011588;28;20026;-81
2022/04/28 05:58:36;;;;;;;22.40;10.38;;;;;;;;;;5006688;28;20041;-81
2022/04/28 06:01:02;;;;;;;22.15;9.98;;;;;;;;;;5002624;28;20051;-80
2022/04/28 06:03:28;;;;;;;25.83;10.23;;;;;;;;;;4998194;28;20472;-81
2022/04/28 06:05:54;;;;;;;22.73;9.40;;;;;;;;;;5011966;28;20389;-79
2022/04/28 06:08:20;;;;;;;20.55;8.63;;;;;;;;;;5014194;28;20097;-81
2022/04/28 06:10:46;;;;;;;20.65;9.27;;;;;;;;;;5015414;28;20034;-80
2022/04/28 06:13:12;;;;;;;19.27;8.98;;;;;;;;;;4999932;28;20081;-81
2022/04/28 06:15:38;;;;;;;22.45;9.07;;;;;;;;;;4999672;28;20041;-81
2022/04/28 06:18:04;;;;;;;23.38;8.90;;;;;;;;;;5003341;28;20026;-81
2022/04/28 06:20:30;;;;;;;18.70;8.13;;;;;;;;;;5004474;28;20034;-83
2022/04/28 06:22:56;;;;;;;21.30;7.95;;;;;;;;;;5002850;28;20026;-80
2022/04/28 06:25:23;;;;;;;18.58;8.27;;;;;;;;;;5001153;28;20037;-81
2022/04/28 06:27:50;;;;;;;23.33;8.73;;;;;;;;;;4997232;28;20056;-78
2022/04/28 06:30:17;;;;;;;20.42;7.53;;;;;;;;;;4998034;28;20390;-81
2022/04/28 06:32:43;;;;;;;21.60;8.65;;;;;;;;;;4985081;28;20034;-81
2022/04/28 06:35:10;;;;;;;17.52;7.65;;;;;;;;;;5001187;28;20033;-86
2022/04/28 06:37:36;;;;;;;20.58;8.00;;;;;;;;;;5000053;28;20129;-83
2022/04/28 06:40:03;;;;;;;18.45;7.57;;;;;;;;;;5001112;28;20027;-83
2022/04/28 06:42:29;;;;;;;20.27;7.65;;;;;;;;;;5004369;28;20034;-85
2022/04/28 06:44:55;;;;;;;17.67;8.20;;;;;;;;;;5003767;28;20032;-81
2022/04/28 06:47:21;;;;;;;24.35;8.25;;;;;;;;;;5006090;28;20026;-82
2022/04/28 06:50:05;;;;;;;17.30;7.60;;;;;;;;;;5002729;28;20038;-80
2022/04/28 06:52:31;;;;;;;17.58;6.57;;;;;;;;;;5009567;28;20028;-88
2022/04/28 06:54:58;;;;;;;18.08;8.18;;;;;;;;;;4995739;28;20030;-84
2022/04/28 06:57:24;;;;;;;22.63;6.90;;;;;;;;;;4995860;28;20074;-82
2022/04/28 06:59:50;;;;;;;15.10;6.18;;;;;;;;;;4996987;28;20518;-80
2022/04/28 07:02:20;;;;;;;19.70;7.05;;;;;;;;;;4995541;28;20046;-84
2022/04/28 07:04:46;;;;;;;30.80;8.73;;;;;;;;;;5002964;28;20048;-80
2022/04/28 07:07:12;;;;;;;22.98;7.97;;;;;;;;;;5006632;28;20030;-80
2022/04/28 07:09:38;;;;;;;19.73;7.05;;;;;;;;;;5008395;28;20038;-81
2022/04/28 07:12:04;;;;;;;19.45;7.60;;;;;;;;;;5008139;28;20037;-78
2022/04/28 07:14:30;;;;;;;16.83;6.90;;;;;;;;;;4999247;28;20041;-80
2022/04/28 07:16:56;;;;;;;17.80;6.38;;;;;;;;;;4993345;28;20034;-81
2022/04/28 07:19:22;;;;;;;19.67;6.88;;;;;;;;;;4997639;28;20038;-79
2022/04/28 07:21:48;;;;;;;14.95;6.80;;;;;;;;;;4999789;28;20102;-79
2022/04/28 07:24:14;;;;;;;17.10;6.43;;;;;;;;;;4993669;28;20577;-78
2022/04/28 07:26:40;;;;;;;19.70;6.93;;;;;;;;;;4992100;28;20030;-78
2022/04/28 07:29:06;;;;;;;15.35;6.35;;;;;;;;;;5001496;28;20089;-78
2022/04/28 07:31:33;;;;;;;15.88;6.35;;;;;;;;;;5002437;28;20034;-84
2022/04/28 07:33:59;;;;;;;17.27;5.70;;;;;;;;;;4999302;28;20030;-79
2022/04/28 07:36:25;;;;;;;18.35;6.35;;;;;;;;;;4993404;28;20507;-78
2022/04/28 07:38:51;;;;;;;15.23;6.78;;;;;;;;;;5005671;28;20042;-77
2022/04/28 07:41:17;;;;;;;22.30;5.63;;;;;;;;;;5004867;28;20034;-78
2022/04/28 07:43:43;;;;;;;18.40;6.13;;;;;;;;;;4993443;28;20128;-78
2022/04/28 07:46:10;;;;;;;19.25;5.75;;;;;;;;;;4999808;28;20045;-79
2022/04/28 07:48:36;;;;;;;15.77;5.40;;;;;;;;;;4996340;28;20062;-79
2022/04/28 07:51:03;;;;;;;14.20;5.53;;;;;;;;;;5000489;28;20057;-78
2022/04/28 07:53:31;;;;;;;14.00;6.57;;;;;;;;;;4982370;28;20034;-82
2022/04/28 07:56:18;;;;;;;15.68;7.07;;;;;;;;;;4993570;28;20022;-80
2022/04/28 07:58:44;;;;;;;13.95;5.53;;;;;;;;;;5004133;28;20026;-79
2022/04/28 08:01:12;;;;;;;15.80;6.30;;;;;;;;;;5008421;28;20060;-78
2022/04/28 08:03:38;;;;;;;10.43;3.92;;;;;;;;;;5002844;28;20131;-79
2022/04/28 08:06:05;;;;;;;14.63;3.92;;;;;;;;;;4999804;28;20042;-81
2022/04/28 08:08:31;;;;;;;10.93;4.03;;;;;;;;;;5009987;28;20034;-78
2022/04/28 08:10:57;;;;;;;11.88;4.43;;;;;;;;;;4996373;28;20054;-79
2022/04/28 08:13:23;;;;;;;13.50;4.07;;;;;;;;;;4992992;28;20065;-80
2022/04/28 08:15:50;;;;;;;15.88;4.75;;;;;;;;;;4996405;28;20026;-79
2022/04/28 08:18:16;;;;;;;16.23;4.57;;;;;;;;;;4993453;28;20130;-79
2022/04/28 08:20:42;;;;;;;12.98;3.92;;;;;;;;;;5000408;28;20046;-82
2022/04/28 08:23:09;;;;;;;13.77;4.75;;;;;;;;;;5002261;28;20061;-78
2022/04/28 08:25:35;;;;;;;11.68;4.07;;;;;;;;;;5002996;28;20056;-77
2022/04/28 08:28:01;;;;;;;10.50;4.60;;;;;;;;;;5010916;28;20046;-80
2022/04/28 08:30:27;;;;;;;17.45;4.47;;;;;;;;;;5008564;28;20128;-79
2022/04/28 08:32:53;;;;;;;11.75;5.18;;;;;;;;;;4997891;28;20258;-78
2022/04/28 08:35:21;;;;;;;11.65;5.03;;;;;;;;;;5006283;28;20057;-78
2022/04/28 08:37:47;;;;;;;12.55;4.53;;;;;;;;;;5004568;28;20038;-78
2022/04/28 08:40:13;;;;;;;10.38;5.07;;;;;;;;;;5010037;28;20013;-80
2022/04/28 08:42:41;;;;;;;11.90;4.53;;;;;;;;;;4998159;28;20030;-80
2022/04/28 08:45:07;;;;;;;16.40;5.95;;;;;;;;;;5005925;28;20034;-79
2022/04/28 08:47:33;;;;;;;13.70;4.25;;;;;;;;;;5000976;28;20539;-77
2022/04/28 08:49:59;;;;;;;14.85;4.75;;;;;;;;;;5003715;28;20053;-77
2022/04/28 08:52:26;;;;;;;14.98;4.32;;;;;;;;;;4996184;28;20441;-80
2022/04/28 08:54:53;;;;;;;18.58;5.70;;;;;;;;;;5006005;28;20037;-78
2022/04/28 08:57:19;;;;;;;12.95;4.93;;;;;;;;;;5005529;28;20110;-78
2022/04/28 08:59:46;;;;;;;15.95;5.10;;;;;;;;;;5010747;28;20553;-81
2022/04/28 09:02:12;;;;;;;14.07;5.20;;;;;;;;;;5001666;28;20038;-79
2022/04/28 09:04:40;;;;;;;11.88;5.13;;;;;;;;;;5004277;28;20019;-79
2022/04/28 09:07:07;;;;;;;15.30;5.07;;;;;;;;;;5018249;28;20029;-79
2022/04/28 09:09:34;;;;;;;12.35;5.60;;;;;;;;;;5008242;28;20037;-79
2022/04/28 09:12:00;;;;;;;16.95;5.10;;;;;;;;;;5008361;28;20073;-78
2022/04/28 09:14:27;;;;;;;11.25;5.15;;;;;;;;;;5005512;28;20101;-79
2022/04/28 09:16:56;;;;;;;14.38;4.75;;;;;;;;;;5010464;28;20030;-79
2022/04/28 09:19:26;;;;;;;13.57;5.32;;;;;;;;;;5002774;28;20027;-79
2022/04/28 09:21:53;;;;;;;10.68;5.15;;;;;;;;;;5003833;28;20080;-79
2022/04/28 09:24:20;;;;;;;16.05;5.65;;;;;;;;;;4997650;28;20045;-78
2022/04/28 09:26:47;;;;;;;13.30;5.35;;;;;;;;;;4997188;28;20035;-78
2022/04/28 09:29:14;;;;;;;12.77;4.85;;;;;;;;;;4998803;28;20038;-79
2022/04/28 09:31:42;;;;;;;12.27;5.50;;;;;;;;;;5000654;28;20019;-77
2022/04/28 09:34:11;;;;;;;12.30;5.05;;;;;;;;;;4998975;28;20174;-80
2022/04/28 09:36:37;;;;;;;10.55;5.18;;;;;;;;;;5001898;28;20481;-81
2022/04/28 09:39:04;;;;;;;14.45;5.22;;;;;;;;;;4998173;28;20022;-79
2022/04/28 09:44:16;;;;;;;15.55;5.80;;;;;;;;;;5014490;28;20064;-78
2022/04/28 09:46:43;;;;;;;19.95;6.40;;;;;;;;;;4996671;28;20042;-78
2022/04/28 09:49:10;;;;;;;13.40;5.60;;;;;;;;;;4996733;28;20137;-79
2022/04/28 09:51:40;;;;;;;12.25;4.95;;;;;;;;;;4999167;28;20166;-76
2022/04/28 09:54:08;;;;;;;13.48;5.43;;;;;;;;;;5011159;28;20124;-77
2022/04/28 09:56:34;;;;;;;11.75;5.40;;;;;;;;;;5009040;28;20155;-78
2022/04/28 09:59:01;;;;;;;11.77;5.82;;;;;;;;;;5010904;28;20105;-77
2022/04/28 10:01:30;;;;;;;16.10;6.00;;;;;;;;;;5005848;28;20079;-77
2022/04/28 10:03:57;;;;;;;13.45;5.63;;;;;;;;;;5010886;28;20045;-78
2022/04/28 10:06:24;;;;;;;13.23;5.07;;;;;;;;;;5017664;28;20034;-78
2022/04/28 10:08:51;;;;;;;15.77;5.90;;;;;;;;;;5006773;28;20030;-77
2022/04/28 10:11:21;;;;;;;14.30;5.20;;;;;;;;;;5005857;28;20057;-79
2022/04/28 10:13:47;;;;;;;15.85;6.15;;;;;;;;;;5010948;28;20034;-77
2022/04/28 10:16:14;;;;;;;14.52;6.05;;;;;;;;;;4997947;28;20064;-78
2022/04/28 10:18:46;;;;;;;18.17;6.70;;;;;;;;;;5002649;28;20184;-79
2022/04/28 10:21:15;;;;;;;17.15;6.10;;;;;;;;;;5006395;28;20376;-77
2022/04/28 10:32:23;;;;;;;14.30;6.47;;;;;;;;;;4993976;28;20132;-78
2022/04/28 10:35:03;;;;;;;12.27;5.57;;;;;;;;;;4995424;28;20137;-79
2022/04/28 10:37:47;;;;;;;11.02;5.20;;;;;;;;;;4995248;28;20022;-80
2022/04/28 10:40:16;;;;;;;12.43;5.88;;;;;;;;;;5004910;28;20030;-78
2022/04/28 10:42:42;;;;;;;16.17;5.88;;;;;;;;;;4995157;28;20034;-81
2022/04/28 10:45:25;;;;;;;13.95;5.75;;;;;;;;;;4995460;28;20034;-79
2022/04/28 10:48:15;;;;;;;13.68;5.85;;;;;;;;;;4994695;28;20049;-80
2022/04/28 10:50:41;;;;;;;18.20;6.97;;;;;;;;;;4994711;28;20112;-81
2022/04/28 10:53:11;;;;;;;16.42;6.22;;;;;;;;;;5000199;28;20476;-78
2022/04/28 10:55:44;;;;;;;11.50;6.20;;;;;;;;;;5012883;28;20116;-80
2022/04/28 10:58:19;;;;;;;18.85;6.18;;;;;;;;;;4993469;28;20029;-78
2022/04/28 11:00:52;;;;;;;14.38;5.70;;;;;;;;;;5009807;28;21017;-80
2022/04/28 11:03:40;;;;;;;12.90;5.57;;;;;;;;;;5012502;28;20030;-78
2022/04/28 11:06:13;;;;;;;13.43;6.22;;;;;;;;;;5012113;28;20037;-79
2022/04/28 11:08:44;;;;;;;11.68;5.68;;;;;;;;;;5012317;28;20030;-79
2022/04/28 11:11:14;;;;;;;15.60;5.70;;;;;;;;;;5011936;28;20038;-78
2022/04/28 11:13:43;;;;;;;16.30;6.25;;;;;;;;;;5001659;28;20057;-78
2022/04/28 11:16:10;;;;;;;14.02;5.90;;;;;;;;;;4992366;28;20041;-78
2022/04/28 11:18:36;;;;;;;14.27;6.07;;;;;;;;;;4992454;28;20073;-79
2022/04/28 11:21:03;;;;;;;14.05;5.90;;;;;;;;;;4992292;28;20125;-80
2022/04/28 11:23:33;;;;;;;9.52;5.80;;;;;;;;;;4992131;28;20499;-78
2022/04/28 11:25:59;;;;;;;11.70;6.07;;;;;;;;;;4990883;28;20070;-80
2022/04/28 11:28:26;;;;;;;10.88;6.10;;;;;;;;;;4995557;28;20034;-79
2022/04/28 11:30:53;;;;;;;22.83;6.63;;;;;;;;;;4997902;28;20523;-76
2022/04/28 11:33:21;;;;;;;15.13;6.03;;;;;;;;;;5007456;28;20090;-79
2022/04/28 11:35:47;;;;;;;14.82;6.40;;;;;;;;;;5011353;28;20072;-78
2022/04/28 11:38:13;;;;;;;12.40;6.35;;;;;;;;;;4993902;28;20117;-78
2022/04/28 11:40:42;;;;;;;13.02;6.43;;;;;;;;;;5011468;28;20072;-78
2022/04/28 11:43:09;;;;;;;14.60;6.95;;;;;;;;;;5002233;28;20034;-79
2022/04/28 11:45:36;;;;;;;15.68;6.20;;;;;;;;;;4990855;28;20045;-80
2022/04/28 11:48:04;;;;;;;13.55;6.25;;;;;;;;;;4991995;28;20039;-77
2022/04/28 11:50:32;;;;;;;14.50;6.32;;;;;;;;;;5002528;28;20049;-78
2022/04/28 11:53:04;;;;;;;13.98;6.57;;;;;;;;;;5011719;28;20018;-78
2022/04/28 11:55:33;;;;;;;11.90;6.35;;;;;;;;;;5011191;28;20030;-80
2022/04/28 11:58:00;;;;;;;16.67;6.75;;;;;;;;;;5003537;28;20018;-79
2022/04/28 12:00:28;;;;;;;17.00;6.35;;;;;;;;;;5011912;28;20074;-80
2022/04/28 12:02:54;;;;;;;17.23;6.30;;;;;;;;;;5011001;28;20084;-78
2022/04/28 12:05:22;;;;;;;13.02;6.38;;;;;;;;;;5010972;28;20030;-79
2022/04/28 12:07:53;;;;;;;16.70;6.68;;;;;;;;;;4999156;28;20221;-80
2022/04/28 12:15:53;;;;;;;21.40;7.00;;;;;;;;;;5011578;28;20067;-79
2022/04/28 12:21:14;;;;;;;12.93;7.07;;;;;;;;;;5006893;28;20029;-79
2022/04/28 12:23:41;;;;;;;15.07;6.97;;;;;;;;;;5005584;28;20108;-79
2022/04/28 12:26:08;;;;;;;13.88;7.07;;;;;;;;;;5005062;28;20122;-81
2022/04/28 12:28:38;;;;;;;17.10;7.70;;;;;;;;;;5010619;28;20491;-79
2022/04/28 12:31:05;;;;;;;14.30;7.50;;;;;;;;;;4991523;28;20022;-78
2022/04/28 12:33:37;;;;;;;15.80;7.53;;;;;;;;;;4990026;28;20125;-78
2022/04/28 12:36:05;;;;;;;15.75;7.60;;;;;;;;;;4990613;28;20038;-78
2022/04/28 12:38:34;;;;;;;17.83;8.00;;;;;;;;;;4991171;28;20026;-79
2022/04/28 12:41:12;;;;;;;14.70;7.35;;;;;;;;;;4991536;28;20032;-79
2022/04/28 12:43:39;;;;;;;15.50;7.53;;;;;;;;;;4991090;28;20073;-77
2022/04/28 12:46:06;;;;;;;13.77;7.18;;;;;;;;;;4991083;28;20049;-78
2022/04/28 12:48:36;;;;;;;23.75;7.40;;;;;;;;;;4990884;28;20077;-78
2022/04/28 12:51:13;;;;;;;15.07;7.40;;;;;;;;;;4990858;28;20089;-79
2022/04/28 12:53:41;;;;;;;13.48;7.57;;;;;;;;;;4990901;28;20361;-81
2022/04/28 12:56:12;;;;;;;15.15;7.55;;;;;;;;;;4997169;28;20032;-81
2022/04/28 12:58:39;;;;;;;16.10;7.80;;;;;;;;;;5002512;28;20245;-81
2022/04/28 13:01:08;;;;;;;13.90;8.30;;;;;;;;;;5007981;28;20033;-79
2022/04/28 13:03:34;;;;;;;16.13;7.28;;;;;;;;;;5009170;28;20038;-79
2022/04/28 13:06:00;;;;;;;14.48;8.18;;;;;;;;;;4993913;28;20044;-78
2022/04/28 13:08:27;;;;;;;14.40;7.20;;;;;;;;;;4999088;28;20522;-81
2022/04/28 13:10:53;;;;;;;14.35;7.78;;;;;;;;;;4996103;28;20045;-79
2022/04/28 13:13:20;;;;;;;18.77;7.15;;;;;;;;;;4998818;28;20084;-84
2022/04/28 13:15:46;;;;;;;19.50;7.40;;;;;;;;;;4999552;28;20070;-81
2022/04/28 13:18:12;;;;;;;14.57;6.85;;;;;;;;;;4993803;28;20550;-82
2022/04/28 13:20:39;;;;;;;12.40;6.78;;;;;;;;;;4991770;28;20136;-81
2022/04/28 13:23:05;;;;;;;15.15;7.40;;;;;;;;;;4991354;28;20113;-81
2022/04/28 13:25:31;;;;;;;12.13;6.90;;;;;;;;;;4991747;28;20518;-78
2022/04/28 13:27:57;;;;;;;15.25;7.68;;;;;;;;;;4996447;28;20078;-80
2022/04/28 13:30:23;;;;;;;14.38;8.35;;;;;;;;;;4992271;28;20448;-80
2022/04/28 13:32:50;;;;;;;16.42;7.07;;;;;;;;;;5005887;28;20038;-79
2022/04/28 13:35:16;;;;;;;15.48;7.38;;;;;;;;;;5011047;28;20066;-80
2022/04/28 13:37:42;;;;;;;18.33;6.80;;;;;;;;;;4993448;28;20035;-79
2022/04/28 13:40:08;;;;;;;15.02;7.55;;;;;;;;;;4993966;28;20267;-82
2022/04/28 13:42:34;;;;;;;15.20;6.68;;;;;;;;;;4994794;28;20029;-82
2022/04/28 13:45:00;;;;;;;18.30;7.68;;;;;;;;;;4994046;28;20041;-82
2022/04/28 13:47:27;;;;;;;12.38;6.82;;;;;;;;;;4997178;28;20045;-82
2022/04/28 13:49:56;;;;;;;11.45;6.50;;;;;;;;;;5015778;28;20026;-81
2022/04/28 13:52:22;;;;;;;14.23;6.88;;;;;;;;;;5015193;28;20463;-82
2022/04/28 13:54:48;;;;;;;17.13;7.22;;;;;;;;;;5004661;28;20031;-79
2022/04/28 13:57:14;;;;;;;15.13;6.80;;;;;;;;;;5000189;28;20038;-79
2022/04/28 13:59:40;;;;;;;17.85;6.80;;;;;;;;;;4999165;28;20031;-79
2022/04/28 14:02:07;;;;;;;18.48;6.75;;;;;;;;;;4998458;28;20030;-79
2022/04/28 14:04:34;;;;;;;15.93;6.20;;;;;;;;;;5000240;28;20121;-81
2022/04/28 14:07:00;;;;;;;13.80;7.40;;;;;;;;;;4999621;28;20033;-80
2022/04/28 14:09:27;;;;;;;12.52;6.25;;;;;;;;;;4998790;28;20062;-79
2022/04/28 14:11:55;;;;;;;14.13;6.20;;;;;;;;;;4996568;28;20042;-79
2022/04/28 14:14:21;;;;;;;12.80;6.15;;;;;;;;;;4998472;28;20082;-80
2022/04/28 14:16:50;;;;;;;14.25;6.40;;;;;;;;;;4999644;28;20092;-82
2022/04/28 14:19:16;;;;;;;14.35;6.85;;;;;;;;;;4998393;28;20022;-81
2022/04/28 14:21:43;;;;;;;13.05;6.20;;;;;;;;;;4998419;28;20042;-80
2022/04/28 14:24:09;;;;;;;13.55;6.55;;;;;;;;;;4999779;28;20331;-78
2022/04/28 14:26:35;;;;;;;12.48;6.40;;;;;;;;;;4999626;28;20451;-79
2022/04/28 14:29:03;;;;;;;15.90;6.80;;;;;;;;;;4996505;28;20034;-79
2022/04/28 14:31:29;;;;;;;13.10;7.07;;;;;;;;;;4998036;28;20038;-79
2022/04/28 14:33:55;;;;;;;16.27;6.63;;;;;;;;;;4999882;28;20014;-82
2022/04/28 14:36:22;;;;;;;15.18;6.93;;;;;;;;;;4998973;28;20061;-79
2022/04/28 14:38:51;;;;;;;10.40;6.00;;;;;;;;;;4999722;28;20022;-79
2022/04/28 14:41:18;;;;;;;11.43;6.18;;;;;;;;;;4999071;28;20069;-80
2022/04/28 14:43:44;;;;;;;13.68;6.78;;;;;;;;;;4996889;28;20034;-82
2022/04/28 14:46:10;;;;;;;15.95;6.57;;;;;;;;;;4999646;28;20054;-80
2022/04/28 14:52:19;;;;;;;11.40;6.85;;;;;;;;;;4999670;28;20038;-82
2022/04/28 14:54:06;;;;;;;12.70;6.28;;;;;;;;;;5012566;28;20496;-82
2022/04/28 14:56:32;;;;;;;19.08;6.10;;;;;;;;;;4997865;28;20026;-79
2022/04/28 14:58:58;;;;;;;10.57;5.10;;;;;;;;;;4998941;28;20030;-80
2022/04/28 15:01:24;;;;;;;14.77;5.18;;;;;;;;;;4998510;28;20476;-79
2022/04/28 15:03:50;;;;;;;12.55;4.35;;;;;;;;;;4997249;28;20470;-77